Time;durP1;ratioP1;P1;durP2;ratioP2;P2;SDS_P1;SDS_P2;PMS_P1;PMS_P2;Temp;Humidity;BMP_temperature;BMP_pressure;BME280_temperature;BME280_humidity;BME280_pressure;Samples;Min_cycle;Max_cycle;Signal;HPM_P1;HPM_P2
2023/01/12 00:01:30;;;;;;;19.47;2.13;;;9.70;99.90;;;;;;5069725;28;20589;-40
2023/01/12 00:03:56;;;;;;;11.00;2.15;;;9.70;99.90;;;;;;5070307;28;20024;-37
2023/01/12 00:06:22;;;;;;;11.52;1.95;;;9.70;99.90;;;;;;5070177;28;20027;-38
2023/01/12 00:08:50;;;;;;;16.25;2.58;;;9.70;99.90;;;;;;5073020;28;20025;-47
2023/01/12 00:11:17;;;;;;;11.10;1.85;;;9.70;99.90;;;;;;5073372;28;20032;-46
2023/01/12 00:13:46;;;;;;;10.57;1.88;;;9.70;99.90;;;;;;5072294;28;20020;-42
2023/01/12 00:19:14;;;;;;;15.60;2.58;;;9.70;99.90;;;;;;5056731;28;20040;-42
2023/01/12 00:22:13;;;;;;;23.50;1.90;;;9.80;99.90;;;;;;5072202;28;20029;-47
2023/01/12 00:24:44;;;;;;;14.68;2.40;;;9.80;99.90;;;;;;5073081;28;20021;-44
2023/01/12 00:27:13;;;;;;;12.75;2.03;;;9.80;99.90;;;;;;5073258;28;20071;-39
2023/01/12 00:29:40;;;;;;;25.15;2.72;;;9.80;99.90;;;;;;5069063;28;20556;-34
2023/01/12 00:32:06;;;;;;;18.67;2.40;;;9.80;99.90;;;;;;5072857;28;20035;-35
2023/01/12 00:34:32;;;;;;;19.92;2.13;;;9.80;99.90;;;;;;5073032;28;20048;-37
2023/01/12 00:36:59;;;;;;;18.80;2.47;;;9.80;99.90;;;;;;5071102;28;20025;-38
2023/01/12 00:39:25;;;;;;;17.50;2.63;;;9.80;99.90;;;;;;5071002;28;20049;-39
2023/01/12 00:47:22;;;;;;;21.75;2.28;;;9.90;99.90;;;;;;5069607;28;20039;-39
2023/01/12 00:49:48;;;;;;;29.00;3.67;;;9.90;99.90;;;;;;5071717;28;20032;-40
2023/01/12 00:52:17;;;;;;;14.52;2.17;;;9.90;99.90;;;;;;5070675;28;20027;-35
2023/01/12 00:54:43;;;;;;;17.77;3.40;;;9.90;99.90;;;;;;5072950;28;20519;-39
2023/01/12 00:57:10;;;;;;;16.40;3.00;;;9.80;99.90;;;;;;5072375;28;20025;-38
2023/01/12 00:59:36;;;;;;;28.30;4.05;;;9.80;99.90;;;;;;5072585;28;20366;-35
2023/01/12 01:02:03;;;;;;;20.75;3.30;;;9.80;99.90;;;;;;5072446;28;20070;-39
2023/01/12 01:04:28;;;;;;;13.15;2.83;;;9.80;99.90;;;;;;5073254;28;20048;-38
2023/01/12 01:06:54;;;;;;;26.48;2.85;;;9.70;99.90;;;;;;5072019;28;20021;-38
2023/01/12 01:09:20;;;;;;;22.63;2.88;;;9.80;99.90;;;;;;5072826;28;20075;-39
2023/01/12 01:11:45;;;;;;;15.73;2.88;;;9.70;99.90;;;;;;5070805;28;20378;-37
2023/01/12 01:14:11;;;;;;;24.80;2.88;;;9.70;99.90;;;;;;5071423;28;20028;-37
2023/01/12 01:16:37;;;;;;;13.60;2.88;;;9.60;99.90;;;;;;5075124;28;20473;-40
2023/01/12 01:19:04;;;;;;;14.85;2.95;;;9.60;99.90;;;;;;5076475;28;20021;-38
2023/01/12 01:21:31;;;;;;;15.85;2.53;;;9.60;99.90;;;;;;5075026;28;20663;-39
2023/01/12 01:23:57;;;;;;;19.10;2.33;;;9.60;99.90;;;;;;5075602;28;20086;-37
2023/01/12 01:26:23;;;;;;;15.57;2.63;;;9.50;99.90;;;;;;5075463;28;20033;-39
2023/01/12 01:28:50;;;;;;;18.00;2.72;;;9.50;99.90;;;;;;5075364;28;20583;-37
2023/01/12 01:31:23;;;;;;;12.05;2.88;;;9.60;99.90;;;;;;5074962;28;20051;-37
2023/01/12 01:33:49;;;;;;;22.52;3.70;;;9.50;99.90;;;;;;5074666;28;20028;-37
2023/01/12 01:36:16;;;;;;;17.48;2.78;;;9.50;99.90;;;;;;5074151;28;20127;-39
2023/01/12 01:38:46;;;;;;;16.83;2.95;;;9.50;99.90;;;;;;5076209;28;20472;-35
2023/01/12 01:41:32;;;;;;;26.48;4.22;;;9.50;99.90;;;;;;5075470;28;20464;-37
2023/01/12 01:44:01;;;;;;;15.63;2.38;;;9.50;99.90;;;;;;5074039;28;20028;-38
2023/01/12 01:46:38;;;;;;;19.08;3.88;;;9.60;99.90;;;;;;5076273;28;20536;-39
2023/01/12 01:49:26;;;;;;;21.77;3.90;;;9.60;99.90;;;;;;5073750;28;20024;-34
2023/01/12 01:52:10;;;;;;;;;;;9.60;99.90;;;;;;5075485;28;20050;-34
2023/01/12 01:54:44;;;;;;;22.02;3.50;;;9.50;99.90;;;;;;5074389;28;19908;-37
2023/01/12 01:57:12;;;;;;;12.25;3.13;;;9.50;99.90;;;;;;5072576;28;20489;-40
2023/01/12 01:59:41;;;;;;;19.00;2.30;;;9.60;99.90;;;;;;5073361;28;20044;-37
2023/01/12 02:02:07;;;;;;;12.13;1.77;;;9.50;99.90;;;;;;5072468;28;20099;-40
2023/01/12 02:04:33;;;;;;;12.05;1.88;;;9.60;99.90;;;;;;5074976;28;20120;-36
2023/01/12 02:07:01;;;;;;;9.77;1.52;;;9.60;99.90;;;;;;5073315;28;20029;-36
2023/01/12 02:09:26;;;;;;;;;;;9.60;99.90;;;;;;5076284;28;20020;-36
2023/01/12 02:17:46;;;;;;;8.00;1.75;;;9.50;99.90;;;;;;5069565;28;20043;-38
2023/01/12 02:20:39;;;;;;;13.35;1.88;;;9.50;99.90;;;;;;5075579;28;20453;-35
2023/01/12 02:23:30;;;;;;;13.80;2.03;;;9.50;99.90;;;;;;5073315;28;20063;-37
2023/01/12 02:26:11;;;;;;;10.73;1.25;;;9.40;99.90;;;;;;5073370;28;20020;-34
2023/01/12 02:28:58;;;;;;;7.90;1.33;;;9.40;99.90;;;;;;5073466;28;20040;-34
2023/01/12 02:31:39;;;;;;;10.55;1.13;;;9.40;99.90;;;;;;5067772;28;20063;-39
2023/01/12 02:34:13;;;;;;;11.80;1.48;;;9.40;99.90;;;;;;5072269;28;20012;-37
2023/01/12 02:36:54;;;;;;;10.48;1.35;;;9.40;99.90;;;;;;5072415;28;20515;-35
2023/01/12 02:39:40;;;;;;;6.28;1.00;;;9.40;99.90;;;;;;5073836;28;20595;-35
2023/01/12 02:45:26;;;;;;;7.88;0.95;;;9.40;99.90;;;;;;5075298;28;20043;-39
2023/01/12 02:48:08;;;;;;;7.10;1.05;;;9.40;99.90;;;;;;5073873;28;20029;-35
2023/01/12 02:50:44;;;;;;;11.10;1.13;;;9.40;99.90;;;;;;5074887;28;20109;-36
2023/01/12 02:53:20;;;;;;;5.53;1.08;;;9.40;99.90;;;;;;5074215;28;20495;-35
2023/01/12 02:55:46;;;;;;;12.32;1.60;;;9.40;99.90;;;;;;5073823;28;20031;-39
2023/01/12 02:58:15;;;;;;;12.32;1.52;;;9.40;99.90;;;;;;5074656;28;20040;-39
2023/01/12 03:00:44;;;;;;;15.82;1.77;;;9.40;99.90;;;;;;5074747;28;20032;-37
2023/01/12 03:03:10;;;;;;;8.52;1.55;;;9.40;99.90;;;;;;5074687;28;20516;-40
2023/01/12 03:05:39;;;;;;;12.05;2.75;;;9.40;99.90;;;;;;5074199;28;20428;-38
2023/01/12 03:08:05;;;;;;;16.25;2.22;;;9.40;99.90;;;;;;5071422;28;20031;-38
2023/01/12 03:11:02;;;;;;;14.30;2.42;;;9.40;99.90;;;;;;5073560;28;20020;-38
2023/01/12 03:13:31;;;;;;;10.68;1.73;;;9.40;99.90;;;;;;5074751;28;20469;-38
2023/01/12 03:15:58;;;;;;;8.75;2.30;;;9.40;99.90;;;;;;5072694;28;20122;-39
2023/01/12 03:18:33;;;;;;;9.30;2.17;;;9.40;99.90;;;;;;5074669;28;20523;-38
2023/01/12 03:21:07;;;;;;;15.13;2.17;;;9.30;99.90;;;;;;5074370;28;20511;-38
2023/01/12 03:23:43;;;;;;;12.10;2.33;;;9.30;99.90;;;;;;5072699;28;20032;-37
2023/01/12 03:26:11;;;;;;;14.25;2.30;;;9.30;99.90;;;;;;5073383;28;20035;-36
2023/01/12 03:28:42;;;;;;;9.37;2.10;;;9.30;99.90;;;;;;5074302;28;20549;-37
2023/01/12 03:31:10;;;;;;;7.82;2.05;;;9.20;99.90;;;;;;5073506;28;20016;-37
2023/01/12 03:33:38;;;;;;;11.77;2.35;;;9.30;99.90;;;;;;5074083;28;20473;-35
2023/01/12 03:36:14;;;;;;;;;;;9.30;99.90;;;;;;5073113;28;20040;-36
2023/01/12 03:38:59;;;;;;;7.88;1.88;;;9.20;99.90;;;;;;5073369;28;20341;-35
2023/01/12 03:41:39;;;;;;;7.80;1.95;;;9.10;99.90;;;;;;5073247;28;20396;-33
2023/01/12 03:44:27;;;;;;;14.85;2.30;;;9.20;99.90;;;;;;5072907;28;20029;-36
2023/01/12 03:47:00;;;;;;;6.30;1.83;;;9.10;99.90;;;;;;5073793;28;20417;-36
2023/01/12 03:49:31;;;;;;;6.25;1.35;;;9.10;99.90;;;;;;5073792;28;20020;-48
2023/01/12 03:51:58;;;;;;;11.35;1.65;;;9.10;99.90;;;;;;5073725;28;20112;-45
2023/01/12 03:54:25;;;;;;;7.70;1.10;;;9.10;99.90;;;;;;5071616;28;20032;-43
2023/01/12 03:56:53;;;;;;;7.50;1.25;;;9.10;99.90;;;;;;5071979;28;20806;-48
2023/01/12 03:59:19;;;;;;;5.78;1.88;;;9.00;99.90;;;;;;5071818;28;20029;-48
2023/01/12 04:01:47;;;;;;;2.90;0.82;;;9.10;99.90;;;;;;5069196;28;20044;-38
2023/01/12 04:04:13;;;;;;;8.20;1.08;;;9.10;99.90;;;;;;5071533;28;20028;-37
2023/01/12 04:06:39;;;;;;;4.05;1.27;;;9.00;99.90;;;;;;5072293;28;20051;-37
2023/01/12 04:09:05;;;;;;;3.65;1.05;;;9.00;99.90;;;;;;5072176;28;20028;-34
2023/01/12 04:14:15;;;;;;;13.88;1.65;;;9.00;99.90;;;;;;5054364;28;20397;-37
2023/01/12 04:16:41;;;;;;;10.48;2.47;;;9.00;99.90;;;;;;5073238;28;20024;-35
2023/01/12 04:19:07;;;;;;;7.10;1.63;;;9.00;99.90;;;;;;5073230;28;20046;-32
2023/01/12 04:24:16;;;;;;;8.35;1.80;;;8.90;99.90;;;;;;5071510;28;20396;-36
2023/01/12 04:26:42;;;;;;;10.73;1.60;;;9.00;99.90;;;;;;5073092;28;20025;-35
2023/01/12 04:29:07;;;;;;;5.03;1.42;;;9.00;99.90;;;;;;5072942;28;20488;-34
2023/01/12 04:31:33;;;;;;;8.05;1.58;;;9.00;99.90;;;;;;5073062;28;20047;-33
2023/01/12 04:33:58;;;;;;;7.30;1.80;;;9.00;99.90;;;;;;5073021;28;20032;-37
2023/01/12 04:36:24;;;;;;;5.78;1.42;;;9.00;99.90;;;;;;5071811;28;20145;-38
2023/01/12 04:38:49;;;;;;;4.28;1.30;;;9.00;99.90;;;;;;5071853;28;20036;-36
2023/01/12 04:41:15;;;;;;;7.88;1.55;;;9.00;99.90;;;;;;5072288;28;20085;-36
2023/01/12 04:43:41;;;;;;;4.25;1.58;;;9.00;99.90;;;;;;5072900;28;20477;-36
2023/01/12 04:46:09;;;;;;;6.45;1.30;;;9.00;99.90;;;;;;5072218;28;20040;-35
2023/01/12 04:48:35;;;;;;;;;;;9.00;99.90;;;;;;5071343;28;20093;-40
2023/01/12 04:51:01;;;;;;;6.95;1.77;;;9.00;99.90;;;;;;5072755;28;19912;-37
2023/01/12 04:53:27;;;;;;;9.80;1.65;;;9.00;99.90;;;;;;5072808;28;20020;-39
2023/01/12 04:55:52;;;;;;;9.13;2.25;;;9.00;99.90;;;;;;5070435;28;20043;-33
2023/01/12 04:58:18;;;;;;;7.80;1.77;;;9.00;99.90;;;;;;5072725;28;20036;-36
2023/01/12 05:00:43;;;;;;;9.30;1.85;;;9.00;99.90;;;;;;5072566;28;20056;-38
2023/01/12 05:03:13;;;;;;;4.38;1.30;;;9.00;99.90;;;;;;5071757;28;20437;-39
2023/01/12 05:05:39;;;;;;;3.83;1.23;;;9.00;99.90;;;;;;5072661;28;20069;-39
2023/01/12 05:10:51;;;;;;;8.75;1.30;;;9.10;99.90;;;;;;5070015;28;20082;-34
2023/01/12 05:13:17;;;;;;;7.95;1.35;;;9.10;99.90;;;;;;5071159;28;20534;-36
2023/01/12 05:15:42;;;;;;;3.75;1.10;;;9.10;99.90;;;;;;5071694;28;20012;-38
2023/01/12 05:18:08;;;;;;;2.30;1.20;;;9.10;99.90;;;;;;5071313;28;20056;-34
2023/01/12 05:20:34;;;;;;;1.83;1.38;;;9.10;99.90;;;;;;5071277;28;20039;-38
2023/01/12 05:22:59;;;;;;;4.20;1.17;;;9.10;99.90;;;;;;5069406;28;20699;-35
2023/01/12 05:25:30;;;;;;;6.35;1.20;;;9.20;99.90;;;;;;5065877;28;20051;-36
2023/01/12 05:27:58;;;;;;;4.97;0.85;;;9.20;99.90;;;;;;5070125;28;20111;-34
2023/01/12 05:30:43;;;;;;;3.58;1.15;;;9.20;99.90;;;;;;5069239;28;20024;-38
2023/01/12 05:33:15;;;;;;;3.28;1.00;;;9.20;99.90;;;;;;5070557;28;20035;-39
2023/01/12 05:35:41;;;;;;;4.32;0.80;;;9.30;99.90;;;;;;5070651;28;20114;-38
2023/01/12 05:38:06;;;;;;;6.85;1.15;;;9.30;99.90;;;;;;5070114;28;20025;-38
2023/01/12 05:40:32;;;;;;;1.73;0.80;;;9.30;99.90;;;;;;5069386;28;20480;-36
2023/01/12 05:45:42;;;;;;;2.17;0.55;;;9.30;99.90;;;;;;5071280;28;20031;-36
2023/01/12 05:48:10;;;;;;;5.65;1.15;;;9.30;99.90;;;;;;5069356;28;20033;-39
2023/01/12 05:50:36;;;;;;;3.10;0.80;;;9.30;99.90;;;;;;5070144;28;20074;-34
2023/01/12 05:53:02;;;;;;;1.90;0.77;;;9.30;99.90;;;;;;5071308;28;20025;-37
2023/01/12 05:55:27;;;;;;;2.78;0.77;;;9.30;99.90;;;;;;5069212;28;20107;-37
2023/01/12 05:57:53;;;;;;;1.20;0.50;;;9.40;99.90;;;;;;5070444;28;20033;-40
2023/01/12 06:00:19;;;;;;;2.55;0.60;;;9.40;99.90;;;;;;5071659;28;20032;-40
2023/01/12 06:02:44;;;;;;;2.78;0.75;;;9.40;99.90;;;;;;5064882;28;20029;-39
2023/01/12 06:07:54;;;;;;;4.15;0.70;;;9.40;99.90;;;;;;5075251;28;20077;-39
2023/01/12 06:10:20;;;;;;;2.55;0.75;;;9.40;99.90;;;;;;5071567;28;20129;-39
2023/01/12 06:15:34;;;;;;;2.47;0.63;;;9.40;99.90;;;;;;5073963;28;20098;-38
2023/01/12 06:17:59;;;;;;;1.23;0.55;;;9.40;99.90;;;;;;5075716;28;20025;-38
2023/01/12 06:20:25;;;;;;;6.32;0.70;;;9.50;99.90;;;;;;5065774;28;20020;-38
2023/01/12 06:22:50;;;;;;;2.90;0.35;;;9.50;99.90;;;;;;5071509;28;20102;-36
2023/01/12 06:25:16;;;;;;;3.88;0.43;;;9.50;99.90;;;;;;5073643;28;20028;-33
2023/01/12 06:27:41;;;;;;;0.85;0.30;;;9.60;99.90;;;;;;5075711;28;20499;-37
2023/01/12 06:30:08;;;;;;;0.82;0.50;;;9.60;99.90;;;;;;5075195;28;20021;-36
2023/01/12 06:32:34;;;;;;;0.77;0.57;;;9.60;99.90;;;;;;5074366;28;20032;-38
2023/01/12 06:35:02;;;;;;;0.77;0.50;;;9.70;99.90;;;;;;5075164;28;20045;-38
2023/01/12 06:37:28;;;;;;;1.45;0.65;;;9.70;99.90;;;;;;5075514;28;20465;-35
2023/01/12 06:39:53;;;;;;;5.60;0.98;;;9.70;99.90;;;;;;5074800;28;20024;-40
2023/01/12 06:42:28;;;;;;;4.43;0.70;;;9.70;99.90;;;;;;5074229;28;20051;-37
2023/01/12 06:44:58;;;;;;;1.02;0.73;;;9.80;99.90;;;;;;5075251;28;20013;-35
2023/01/12 06:47:25;;;;;;;3.05;0.80;;;9.80;99.90;;;;;;5075164;28;20469;-35
2023/01/12 06:49:51;;;;;;;1.77;0.65;;;9.90;99.90;;;;;;5073808;28;20023;-37
2023/01/12 06:52:20;;;;;;;2.05;0.60;;;9.90;99.90;;;;;;5073178;28;20119;-34
2023/01/12 06:54:46;;;;;;;3.13;0.82;;;10.00;99.90;;;;;;5074628;28;20017;-39
2023/01/12 06:57:13;;;;;;;3.22;0.50;;;10.00;99.90;;;;;;5073928;28;20035;-39
2023/01/12 06:59:40;;;;;;;0.98;0.45;;;10.00;99.90;;;;;;5074689;28;20024;-34
2023/01/12 07:02:10;;;;;;;3.67;0.85;;;10.00;99.90;;;;;;5074827;28;20081;-37
2023/01/12 07:04:36;;;;;;;1.70;0.60;;;10.10;99.90;;;;;;5075091;28;20475;-41
2023/01/12 07:07:01;;;;;;;2.75;1.15;;;10.20;99.90;;;;;;5072746;28;20032;-37
2023/01/12 07:09:27;;;;;;;6.85;1.17;;;10.30;99.90;;;;;;5074666;28;20059;-40
2023/01/12 07:11:53;;;;;;;2.88;0.95;;;10.30;99.90;;;;;;5072666;28;20489;-37
2023/01/12 07:14:21;;;;;;;1.25;0.77;;;10.30;99.90;;;;;;5074291;28;20024;-41
2023/01/12 07:16:46;;;;;;;3.67;0.82;;;10.30;99.90;;;;;;5073369;28;20468;-42
2023/01/12 07:19:12;;;;;;;2.08;0.88;;;10.40;99.90;;;;;;5074235;28;20029;-38
2023/01/12 07:21:38;;;;;;;2.22;0.80;;;10.40;99.90;;;;;;5072820;28;20472;-40
2023/01/12 07:24:03;;;;;;;7.93;1.25;;;10.40;99.90;;;;;;5070249;28;20032;-38
2023/01/12 07:26:29;;;;;;;7.20;0.82;;;10.50;99.90;;;;;;5070308;28;20028;-46
2023/01/12 07:28:55;;;;;;;7.75;1.10;;;10.50;99.90;;;;;;5073175;28;20446;-40
2023/01/12 07:31:20;;;;;;;12.60;1.35;;;10.60;99.90;;;;;;5072974;28;20029;-40
2023/01/12 07:33:46;;;;;;;6.47;1.35;;;10.60;99.90;;;;;;5074159;28;20040;-40
2023/01/12 07:36:12;;;;;;;13.95;1.38;;;10.60;99.90;;;;;;5072011;28;20036;-40
2023/01/12 07:38:37;;;;;;;6.93;1.88;;;10.70;99.90;;;;;;5069064;28;20021;-41
2023/01/12 07:41:04;;;;;;;9.15;1.10;;;10.70;99.90;;;;;;5072104;28;20067;-39
2023/01/12 07:43:32;;;;;;;11.38;1.83;;;10.70;99.90;;;;;;5071797;28;20028;-40
2023/01/12 07:45:58;;;;;;;13.30;1.50;;;10.80;99.90;;;;;;5071252;28;20028;-39
2023/01/12 07:48:25;;;;;;;14.80;1.33;;;10.80;99.90;;;;;;5068678;28;20384;-42
2023/01/12 07:50:51;;;;;;;15.13;1.77;;;10.90;99.90;;;;;;5071326;28;20492;-41
2023/01/12 07:53:18;;;;;;;19.33;2.63;;;10.90;99.90;;;;;;5071789;28;20472;-40
2023/01/12 07:55:44;;;;;;;19.20;1.77;;;11.00;99.90;;;;;;5071439;28;20017;-37
2023/01/12 07:58:10;;;;;;;7.95;1.50;;;11.00;99.90;;;;;;5072880;28;20094;-34
2023/01/12 08:00:36;;;;;;;6.78;1.40;;;11.00;99.90;;;;;;5069843;28;20435;-48
2023/01/12 08:03:07;;;;;;;10.45;1.52;;;11.10;99.90;;;;;;5072414;28;20025;-48
2023/01/12 08:05:34;;;;;;;13.60;2.10;;;11.10;99.90;;;;;;5073757;28;20393;-48
2023/01/12 08:08:00;;;;;;;18.75;2.08;;;11.10;99.90;;;;;;5072831;28;20042;-48
2023/01/12 08:10:26;;;;;;;14.98;2.03;;;11.10;99.90;;;;;;5072460;28;20092;-48
2023/01/12 08:12:52;;;;;;;17.55;1.40;;;11.20;99.90;;;;;;5071318;28;20029;-48
2023/01/12 08:15:18;;;;;;;9.73;1.50;;;11.20;99.90;;;;;;5072523;28;20044;-49
2023/01/12 08:17:49;;;;;;;13.98;1.92;;;11.30;99.90;;;;;;5070505;28;20504;-34
2023/01/12 08:20:27;;;;;;;9.00;1.80;;;11.30;99.90;;;;;;5062568;28;20427;-39
2023/01/12 08:22:57;;;;;;;11.27;1.63;;;11.30;99.90;;;;;;5073037;28;20028;-38
2023/01/12 08:25:32;;;;;;;19.30;2.05;;;11.30;99.90;;;;;;5067814;28;20483;-33
2023/01/12 08:28:02;;;;;;;10.93;2.28;;;11.30;99.90;;;;;;5071049;28;20032;-37
2023/01/12 08:30:28;;;;;;;21.15;2.47;;;11.30;99.90;;;;;;5070747;28;21590;-36
2023/01/12 08:32:56;;;;;;;17.05;2.13;;;11.30;99.90;;;;;;5072652;28;20399;-38
2023/01/12 08:35:22;;;;;;;;;;;11.30;99.90;;;;;;5070739;28;20116;-34
2023/01/12 08:37:48;;;;;;;16.08;2.47;;;11.30;99.90;;;;;;5068964;28;20412;-40
2023/01/12 08:40:14;;;;;;;6.38;1.50;;;11.40;99.90;;;;;;5071953;28;20024;-38
2023/01/12 08:42:39;;;;;;;17.30;2.25;;;11.40;99.90;;;;;;5071076;28;20024;-35
2023/01/12 08:45:06;;;;;;;15.57;2.08;;;11.40;99.90;;;;;;5067397;28;20029;-40
2023/01/12 08:47:32;;;;;;;10.17;1.90;;;11.40;99.90;;;;;;5071813;28;20024;-36
2023/01/12 08:49:59;;;;;;;11.13;2.25;;;11.40;99.90;;;;;;5070732;28;20031;-38
2023/01/12 08:52:28;;;;;;;11.32;2.42;;;11.40;99.90;;;;;;5070022;28;20013;-38
2023/01/12 08:54:54;;;;;;;16.90;2.25;;;11.40;99.90;;;;;;5062216;28;20485;-41
2023/01/12 08:57:20;;;;;;;12.95;2.33;;;11.40;99.90;;;;;;5069859;28;20380;-40
2023/01/12 08:59:46;;;;;;;11.05;2.13;;;11.50;99.90;;;;;;5072148;28;20029;-45
2023/01/12 09:02:12;;;;;;;13.82;1.92;;;11.50;99.90;;;;;;5072031;28;20023;-46
2023/01/12 09:04:39;;;;;;;15.20;1.60;;;11.50;99.90;;;;;;5068874;28;20028;-40
2023/01/12 09:07:06;;;;;;;9.88;2.00;;;11.50;99.90;;;;;;5069307;28;20504;-34
2023/01/12 09:09:31;;;;;;;8.77;2.10;;;11.50;99.90;;;;;;5071069;28;20465;-40
2023/01/12 09:11:57;;;;;;;20.50;3.17;;;11.40;99.90;;;;;;5067095;28;20078;-37
2023/01/12 09:14:24;;;;;;;10.10;1.77;;;11.50;99.90;;;;;;5070078;28;20024;-40
2023/01/12 09:16:50;;;;;;;31.48;3.08;;;11.50;99.90;;;;;;5069083;28;20025;-41
2023/01/12 09:19:15;;;;;;;24.60;2.60;;;11.50;99.90;;;;;;5065735;28;20547;-37
2023/01/12 09:21:41;;;;;;;18.25;2.10;;;11.50;99.90;;;;;;5064838;28;20061;-36
2023/01/12 09:24:08;;;;;;;11.13;2.88;;;11.50;99.90;;;;;;5065337;28;20115;-37
2023/01/12 09:26:39;;;;;;;16.25;2.63;;;11.50;99.90;;;;;;5069344;28;20452;-36
2023/01/12 09:29:06;;;;;;;18.60;3.13;;;11.60;99.90;;;;;;5065200;28;20530;-37
2023/01/12 09:31:33;;;;;;;19.48;2.85;;;11.60;99.90;;;;;;5064406;28;20021;-37
2023/01/12 09:33:59;;;;;;;18.00;2.67;;;11.60;99.90;;;;;;5070655;28;20403;-38
2023/01/12 09:36:27;;;;;;;19.85;3.05;;;11.70;99.90;;;;;;5071205;28;20188;-37
2023/01/12 09:38:53;;;;;;;26.25;3.63;;;11.60;99.90;;;;;;5068333;28;20104;-37
2023/01/12 09:47:38;;;;;;;13.93;2.42;;;11.70;99.90;;;;;;5072807;28;20043;-41
2023/01/12 09:50:18;;;;;;;19.35;2.50;;;11.70;99.90;;;;;;5067379;28;20020;-37
2023/01/12 09:52:54;;;;;;;18.05;3.25;;;11.70;99.90;;;;;;5072136;28;20185;-38
2023/01/12 09:55:23;;;;;;;33.53;3.17;;;11.70;99.90;;;;;;5075020;28;20473;-35
2023/01/12 09:58:07;;;;;;;30.90;3.22;;;11.70;99.90;;;;;;5067482;28;20734;-36
2023/01/12 10:00:33;;;;;;;20.60;3.13;;;11.70;99.90;;;;;;5071931;28;20039;-40
2023/01/12 10:03:24;;;;;;;32.15;3.55;;;11.60;99.90;;;;;;5075748;28;20020;-37
2023/01/12 10:05:59;;;;;;;24.55;2.72;;;11.60;99.90;;;;;;5054337;28;20056;-37
2023/01/12 10:08:35;;;;;;;33.00;3.50;;;11.80;99.90;;;;;;5063054;28;20472;-36
2023/01/12 10:11:28;;;;;;;11.60;2.47;;;11.80;99.90;;;;;;5073473;28;20021;-50
2023/01/12 10:14:05;;;;;;;21.77;2.78;;;11.90;99.90;;;;;;5072752;28;20509;-45
2023/01/12 10:16:54;;;;;;;14.70;2.38;;;11.90;99.90;;;;;;5075586;28;20020;-42
2023/01/12 10:19:53;;;;;;;27.83;4.05;;;11.90;99.90;;;;;;5068737;28;20504;-41
2023/01/12 10:22:44;;;;;;;16.83;1.60;;;11.90;99.90;;;;;;5075529;28;20389;-42
2023/01/12 10:25:47;;;;;;;14.55;2.53;;;11.80;99.90;;;;;;5058682;28;20044;-41
2023/01/12 10:28:32;;;;;;;10.85;1.63;;;11.80;99.90;;;;;;5023234;28;20876;-41
2023/01/12 10:30:58;;;;;;;18.85;2.97;;;11.80;99.90;;;;;;5074396;28;20377;-43
2023/01/12 10:33:31;;;;;;;15.05;1.92;;;11.80;99.90;;;;;;5075249;28;20031;-41
2023/01/12 10:36:07;;;;;;;15.88;3.05;;;11.70;99.90;;;;;;5071241;28;20048;-39
2023/01/12 10:38:56;;;;;;;9.25;2.00;;;11.70;99.90;;;;;;5057555;28;20477;-40
2023/01/12 10:41:25;;;;;;;9.63;1.52;;;11.80;99.90;;;;;;5055698;28;20116;-41
2023/01/12 10:43:59;;;;;;;19.38;2.53;;;11.70;99.90;;;;;;5069924;28;20538;-45
2023/01/12 10:46:32;;;;;;;17.30;1.92;;;11.70;99.90;;;;;;5070650;28;20029;-42
2023/01/12 10:49:23;;;;;;;24.55;2.65;;;11.70;99.90;;;;;;5073703;28;20029;-41
2023/01/12 10:51:51;;;;;;;14.07;1.58;;;11.80;99.90;;;;;;5073158;28;20513;-41
2023/01/12 10:54:21;;;;;;;21.63;2.40;;;11.70;99.90;;;;;;5074089;28;20394;-41
2023/01/12 10:57:06;;;;;;;8.93;2.00;;;11.70;99.90;;;;;;5073733;28;20016;-41
2023/01/12 10:59:34;;;;;;;11.57;1.70;;;11.70;99.90;;;;;;5063759;28;20107;-40
2023/01/12 11:02:12;;;;;;;15.77;2.45;;;11.70;99.90;;;;;;5072932;28;20484;-41
2023/01/12 11:04:42;;;;;;;14.57;1.58;;;11.70;99.90;;;;;;5070106;28;20499;-39
2023/01/12 11:07:20;;;;;;;6.47;2.03;;;11.70;99.90;;;;;;5072640;28;20024;-41
2023/01/12 11:09:46;;;;;;;9.20;1.33;;;11.70;99.90;;;;;;5072190;28;20028;-40
2023/01/12 11:12:34;;;;;;;18.38;2.05;;;11.70;99.90;;;;;;5073134;28;20069;-40
2023/01/12 11:15:01;;;;;;;12.13;2.90;;;11.80;99.90;;;;;;5072377;28;20546;-42
2023/01/12 11:17:44;;;;;;;19.67;2.85;;;11.70;99.90;;;;;;5072098;28;20401;-41
2023/01/12 11:20:15;;;;;;;12.25;2.17;;;11.70;99.90;;;;;;5070219;28;20563;-41
2023/01/12 11:22:43;;;;;;;15.13;2.22;;;11.70;99.90;;;;;;5070749;28;20020;-40
2023/01/12 11:25:21;;;;;;;19.92;2.22;;;11.70;99.90;;;;;;5071687;28;20549;-43
2023/01/12 11:28:01;;;;;;;11.90;2.33;;;11.70;99.90;;;;;;5072844;28;20032;-41
2023/01/12 11:30:36;;;;;;;23.40;3.03;;;11.70;99.90;;;;;;5072512;28;20452;-40
2023/01/12 11:33:07;;;;;;;11.98;2.15;;;11.60;99.90;;;;;;5072420;28;20411;-41
2023/01/12 11:35:46;;;;;;;18.67;2.20;;;11.70;99.90;;;;;;5072495;28;20044;-42
2023/01/12 11:38:26;;;;;;;18.92;3.38;;;11.70;99.90;;;;;;5072423;28;20024;-41
2023/01/12 11:40:57;;;;;;;10.23;1.67;;;11.70;99.90;;;;;;5073455;28;20507;-41
2023/01/12 11:43:48;;;;;;;8.45;1.25;;;11.80;99.90;;;;;;5071280;28;20508;-47
2023/01/12 11:46:41;;;;;;;24.92;2.13;;;11.80;99.90;;;;;;5066838;28;20025;-40
2023/01/12 11:49:26;;;;;;;24.75;2.70;;;11.80;99.90;;;;;;5060478;28;20063;-41
2023/01/12 11:51:57;;;;;;;22.50;2.15;;;11.70;99.90;;;;;;5070613;28;20021;-44
2023/01/12 11:54:25;;;;;;;15.13;4.07;;;11.70;99.90;;;;;;5066661;28;20027;-39
2023/01/12 11:57:29;;;;;;;6.95;1.70;;;11.60;99.90;;;;;;5067746;28;20103;-41
2023/01/12 11:59:54;;;;;;;10.48;1.58;;;11.60;99.90;;;;;;5069563;28;20107;-40
2023/01/12 12:02:36;;;;;;;13.52;1.88;;;11.60;99.90;;;;;;5072430;28;20161;-40
2023/01/12 12:05:28;;;;;;;9.52;1.10;;;11.60;99.90;;;;;;5068597;28;20120;-35
2023/01/12 12:07:59;;;;;;;24.73;3.70;;;11.60;99.90;;;;;;5068942;28;20033;-35
2023/01/12 12:10:48;;;;;;;18.55;2.88;;;11.60;99.90;;;;;;5067068;28;20028;-36
2023/01/12 12:13:16;;;;;;;16.52;2.50;;;11.60;99.90;;;;;;5064901;28;20025;-37
2023/01/12 12:19:27;;;;;;;12.82;2.83;;;11.60;99.90;;;;;;5057728;28;20036;-39
2023/01/12 12:22:18;;;;;;;17.05;2.00;;;11.60;99.90;;;;;;5071067;28;20025;-37
2023/01/12 12:25:12;;;;;;;15.95;1.95;;;11.50;99.90;;;;;;5068561;28;20502;-40
2023/01/12 12:27:58;;;;;;;16.42;2.67;;;11.50;99.90;;;;;;5069906;28;20115;-40
2023/01/12 12:30:49;;;;;;;19.52;2.65;;;11.50;99.90;;;;;;5063159;28;20036;-42
2023/01/12 12:33:26;;;;;;;15.57;2.22;;;11.50;99.90;;;;;;5071493;28;20125;-42
2023/01/12 12:36:10;;;;;;;14.60;1.95;;;11.50;99.90;;;;;;5070396;28;20045;-39
2023/01/12 12:38:38;;;;;;;14.57;1.92;;;11.40;99.90;;;;;;5072931;28;20035;-41
2023/01/12 12:47:57;;;;;;;8.77;1.42;;;11.40;99.90;;;;;;5069975;28;20039;-41
2023/01/12 12:50:28;;;;;;;4.32;1.17;;;11.50;99.90;;;;;;5067806;28;20115;-48
2023/01/12 12:53:15;;;;;;;7.78;1.00;;;11.50;99.90;;;;;;5071897;28;20463;-42
2023/01/12 12:55:41;;;;;;;5.80;1.30;;;11.40;99.90;;;;;;5070063;28;20111;-42
2023/01/12 12:58:22;;;;;;;5.63;1.10;;;11.40;99.90;;;;;;5070132;28;20078;-42
2023/01/12 13:00:53;;;;;;;5.53;0.93;;;11.50;99.90;;;;;;5071958;28;20857;-42
2023/01/12 13:03:37;;;;;;;3.30;0.47;;;11.40;99.90;;;;;;5067531;28;20387;-45
2023/01/12 13:06:11;;;;;;;3.30;0.88;;;11.40;99.90;;;;;;5070444;28;20435;-38
2023/01/12 13:08:38;;;;;;;3.78;0.88;;;11.40;99.90;;;;;;5059638;28;20033;-39
2023/01/12 13:11:05;;;;;;;1.80;0.40;;;11.50;99.90;;;;;;5074331;28;20028;-41
2023/01/12 13:13:34;;;;;;;0.77;0.77;;;11.50;99.90;;;;;;5075873;28;20431;-39
2023/01/12 13:16:18;;;;;;;4.78;0.68;;;11.50;99.90;;;;;;5076982;28;20451;-40
2023/01/12 13:18:49;;;;;;;1.45;0.60;;;11.40;99.90;;;;;;5076316;28;20032;-40
2023/01/12 13:21:49;;;;;;;1.08;0.43;;;11.50;99.90;;;;;;5072135;28;20482;-45
2023/01/12 13:24:25;;;;;;;1.30;0.40;;;11.40;99.90;;;;;;5068367;28;20468;-42
2023/01/12 13:26:52;;;;;;;0.30;0.30;;;11.40;99.90;;;;;;5072940;28;20029;-42
2023/01/12 13:29:27;;;;;;;0.47;0.25;;;11.40;99.90;;;;;;5074373;28;20094;-37
2023/01/12 13:32:18;;;;;;;1.30;0.60;;;11.40;99.90;;;;;;5076417;28;20366;-34
2023/01/12 13:34:45;;;;;;;3.47;0.50;;;11.30;99.90;;;;;;5076002;28;20484;-37
2023/01/12 13:37:35;;;;;;;0.63;0.43;;;11.30;99.90;;;;;;5075151;28;20040;-35
2023/01/12 13:40:24;;;;;;;0.30;0.30;;;11.30;99.90;;;;;;5076265;28;20032;-36
2023/01/12 13:43:14;;;;;;;1.10;1.00;;;11.30;99.90;;;;;;5075243;28;20032;-34
2023/01/12 13:45:52;;;;;;;0.52;0.30;;;11.30;99.90;;;;;;5075109;28;20516;-38
2023/01/12 13:48:19;;;;;;;4.13;0.55;;;11.30;99.90;;;;;;5075823;28;20025;-36
2023/01/12 13:50:53;;;;;;;0.55;0.50;;;11.30;99.90;;;;;;5076260;28;20511;-39
2023/01/12 13:53:25;;;;;;;0.90;0.70;;;11.40;99.90;;;;;;5074416;28;20158;-38
2023/01/12 13:56:02;;;;;;;3.83;0.70;;;11.30;99.90;;;;;;5073404;28;20020;-37
2023/01/12 13:58:40;;;;;;;4.57;0.60;;;11.30;99.90;;;;;;5075050;28;20078;-38
2023/01/12 14:01:27;;;;;;;1.13;0.63;;;11.30;99.90;;;;;;5076027;28;20515;-35